TAF KDUJ
KDUJ 090524Z 0906/1006 28006KT P6SM BKN018 FM090700 28005KT P6SM BKN020 FM090800 28004KT P6SM BKN030 FM091600 19005KT P6SM BKN035 FM100000 14009G18KT P6SM BKN090=
METAR KDUJ
WC KDUJ
WS KDUJ
WV KDUJ